createdAt,value
2022-09-18T00:00:40.144Z,7.39
2022-09-18T00:02:05.183Z,7.39
2022-09-18T00:03:08.590Z,7.38
2022-09-18T00:04:16.543Z,7.40
2022-09-18T00:05:19.611Z,7.39
2022-09-18T00:06:26.562Z,7.41
2022-09-18T00:07:29.706Z,7.40
2022-09-18T00:08:35.357Z,7.38
2022-09-18T00:09:38.620Z,7.44
2022-09-18T00:10:44.783Z,7.44
2022-09-18T00:11:49.496Z,7.43
2022-09-18T00:12:55.828Z,7.44
2022-09-18T00:13:59.091Z,7.42
2022-09-18T00:15:02.261Z,7.44
2022-09-18T00:16:07.677Z,7.44
2022-09-18T00:17:11.126Z,7.43
2022-09-18T00:18:16.755Z,7.43
2022-09-18T00:19:21.031Z,7.44
2022-09-18T00:20:24.181Z,7.44
2022-09-18T00:21:28.896Z,7.44
2022-09-18T00:22:32.083Z,7.42
2022-09-18T00:23:38.157Z,7.44
2022-09-18T00:24:41.391Z,7.44
2022-09-18T00:25:44.535Z,7.43
2022-09-18T00:26:48.488Z,7.42
2022-09-18T00:27:51.910Z,7.41
2022-09-18T00:28:56.127Z,7.45
2022-09-18T00:29:59.301Z,7.42
2022-09-18T00:31:13.368Z,7.41
2022-09-18T00:32:16.677Z,7.38
2022-09-18T00:33:20.743Z,7.44
2022-09-18T00:34:24.672Z,7.41
2022-09-18T00:35:28.196Z,7.40
2022-09-18T00:36:31.533Z,7.37
2022-09-18T00:37:35.055Z,7.37
2022-09-18T00:38:38.415Z,7.41
2022-09-18T00:39:42.292Z,7.40
2022-09-18T00:40:46.845Z,7.40
2022-09-18T00:41:52.391Z,7.39
2022-09-18T00:42:55.652Z,7.40
2022-09-18T00:44:36.752Z,7.45
2022-09-18T00:45:40.212Z,7.34
2022-09-18T00:46:46.003Z,7.36
2022-09-18T00:47:51.411Z,7.38
2022-09-18T00:49:04.932Z,7.37
2022-09-18T00:50:14.866Z,7.37
2022-09-18T00:51:20.566Z,7.32
2022-09-18T00:52:28.306Z,7.32
2022-09-18T00:53:31.550Z,7.31
2022-09-18T00:54:40.461Z,7.33
2022-09-18T00:55:44.137Z,7.34
2022-09-18T00:56:50.245Z,7.29
2022-09-18T00:57:56.559Z,7.35
2022-09-18T00:58:59.949Z,7.32
2022-09-18T01:00:13.977Z,7.35
2022-09-18T01:01:18.918Z,7.33
2022-09-18T01:02:22.839Z,7.29
2022-09-18T01:03:26.167Z,7.29
2022-09-18T01:04:29.686Z,7.30
2022-09-18T01:05:52.818Z,7.28
2022-09-18T01:08:59.369Z,7.19
2022-09-18T01:10:46.720Z,7.19
2022-09-18T01:11:50.334Z,7.14
2022-09-18T01:12:58.956Z,7.18
2022-09-18T01:14:40.028Z,7.21
2022-09-18T01:15:45.887Z,7.15
2022-09-18T01:17:23.286Z,7.22
2022-09-18T01:18:44.777Z,7.16
2022-09-18T01:19:57.022Z,7.14
2022-09-18T01:21:09.071Z,7.14
2022-09-18T01:22:24.362Z,7.12
2022-09-18T01:23:40.922Z,7.12
2022-09-18T01:25:24.380Z,7.12
2022-09-18T01:26:42.610Z,7.07
2022-09-18T01:28:04.742Z,7.09
2022-09-18T01:29:35.875Z,7.11
2022-09-18T01:30:45.318Z,7.09
2022-09-18T01:31:58.719Z,7.04
2022-09-18T01:33:10.466Z,7.06
2022-09-18T01:34:22.401Z,7.10
2022-09-18T01:35:42.279Z,7.07
2022-09-18T01:36:50.778Z,7.06
2022-09-18T01:38:03.390Z,7.07
2022-09-18T01:39:26.207Z,7.08
2022-09-18T01:40:39.640Z,7.08
2022-09-18T01:41:51.433Z,7.06
2022-09-18T01:43:00.173Z,7.06
2022-09-18T01:44:14.801Z,7.08
2022-09-18T01:45:24.667Z,7.05
2022-09-18T01:46:29.355Z,7.03
2022-09-18T01:47:41.001Z,7.07
2022-09-18T01:48:57.240Z,7.07
2022-09-18T01:50:03.104Z,7.04
2022-09-18T01:51:25.591Z,7.04
2022-09-18T01:52:38.663Z,7.03
2022-09-18T01:53:47.471Z,7.03
2022-09-18T01:54:54.892Z,7.07
2022-09-18T01:56:07.392Z,7.08
2022-09-18T01:57:22.282Z,7.01
2022-09-18T01:58:29.163Z,7.04
2022-09-18T01:59:42.492Z,7.04
2022-09-18T02:01:00.217Z,6.99
2022-09-18T02:02:08.555Z,7.04
2022-09-18T02:03:16.386Z,6.94
2022-09-18T02:04:25.406Z,6.97
2022-09-18T02:05:43.683Z,7.00
2022-09-18T02:07:00.950Z,7.00
2022-09-18T02:08:17.296Z,6.98
2022-09-18T02:09:21.362Z,7.01
2022-09-18T02:10:27.139Z,6.97
2022-09-18T02:11:34.654Z,6.99
2022-09-18T02:12:41.254Z,6.93
2022-09-18T02:13:52.836Z,6.94
2022-09-18T02:15:03.493Z,6.88
2022-09-18T02:16:33.189Z,6.88
2022-09-18T02:17:42.309Z,6.81
2022-09-18T02:18:52.167Z,6.79
2022-09-18T02:20:08.341Z,6.77
2022-09-18T02:21:18.859Z,6.73
2022-09-18T02:22:24.862Z,6.73
2022-09-18T02:23:32.728Z,6.76
2022-09-18T02:24:38.943Z,6.72
2022-09-18T02:26:02.268Z,6.73
2022-09-18T02:27:08.787Z,6.69
2022-09-18T02:28:16.552Z,6.69
2022-09-18T02:29:23.921Z,6.66
2022-09-18T02:30:31.517Z,6.66
2022-09-18T02:31:37.999Z,6.71
2022-09-18T02:32:42.032Z,6.69
2022-09-18T02:33:46.551Z,6.66
2022-09-18T02:34:50.472Z,6.68
2022-09-18T02:36:15.871Z,6.68
2022-09-18T02:37:41.711Z,6.73
2022-09-18T02:39:09.118Z,6.69
2022-09-18T02:40:31.745Z,6.67
2022-09-18T02:41:50.007Z,6.74
2022-09-18T02:43:16.653Z,6.69
2022-09-18T02:44:31.935Z,6.68
2022-09-18T02:45:44.062Z,6.64
2022-09-18T02:46:54.884Z,6.61
2022-09-18T02:48:11.585Z,6.61
2022-09-18T02:49:29.456Z,6.58
2022-09-18T02:50:39.080Z,6.49
2022-09-18T02:52:01.674Z,6.50
2022-09-18T02:53:09.880Z,6.42
2022-09-18T02:54:33.538Z,6.32
2022-09-18T02:55:44.058Z,6.26
2022-09-18T02:56:58.132Z,6.21
2022-09-18T02:58:07.264Z,6.19
2022-09-18T02:59:17.411Z,6.25
2022-09-18T03:00:29.042Z,6.17
2022-09-18T03:01:36.916Z,6.10
2022-09-18T03:02:40.575Z,6.03
2022-09-18T03:03:44.917Z,6.03
2022-09-18T03:04:50.199Z,6.03
2022-09-18T03:06:03.354Z,5.99
2022-09-18T03:07:10.050Z,6.01
2022-09-18T03:08:19.425Z,5.96
2022-09-18T03:09:24.897Z,5.97
2022-09-18T03:10:28.666Z,5.95
2022-09-18T03:11:33.434Z,5.94
2022-09-18T03:12:36.693Z,5.97
2022-09-18T03:13:40.027Z,5.96
2022-09-18T03:14:43.216Z,5.88
2022-09-18T03:15:49.040Z,5.92
2022-09-18T03:16:52.326Z,5.85
2022-09-18T03:17:55.911Z,5.83
2022-09-18T03:18:59.876Z,5.81
2022-09-18T03:20:05.631Z,5.76
2022-09-18T03:21:08.941Z,5.78
2022-09-18T03:22:17.627Z,5.72
2022-09-18T03:23:20.993Z,5.70
2022-09-18T03:24:25.758Z,5.69
2022-09-18T03:25:29.630Z,5.67
2022-09-18T03:26:33.869Z,5.64
2022-09-18T03:27:37.228Z,5.62
2022-09-18T03:28:40.530Z,5.58
2022-09-18T03:29:45.441Z,5.60
2022-09-18T03:30:51.144Z,5.63
2022-09-18T03:31:55.447Z,5.58
2022-09-18T03:32:59.183Z,5.52
2022-09-18T03:34:03.937Z,5.52
2022-09-18T03:35:10.521Z,5.43
2022-09-18T03:36:13.888Z,5.50
2022-09-18T03:37:17.145Z,5.54
2022-09-18T03:38:21.155Z,5.53
2022-09-18T03:39:26.158Z,5.52
2022-09-18T03:40:29.641Z,5.54
2022-09-18T03:41:33.737Z,5.60
2022-09-18T03:42:37.608Z,5.56
2022-09-18T03:43:40.763Z,5.60
2022-09-18T03:44:46.144Z,5.58
2022-09-18T03:45:56.647Z,5.61
2022-09-18T03:46:59.994Z,5.66
2022-09-18T03:48:03.957Z,5.67
2022-09-18T03:49:10.421Z,5.68
2022-09-18T03:50:15.674Z,5.75
2022-09-18T03:51:21.480Z,5.75
2022-09-18T03:52:24.906Z,5.77
2022-09-18T03:53:34.421Z,5.84
2022-09-18T03:55:00.245Z,5.87
2022-09-18T03:56:32.971Z,5.84
2022-09-18T03:57:36.227Z,5.91
2022-09-18T03:59:11.686Z,5.95
2022-09-18T04:00:34.166Z,5.99
2022-09-18T04:01:39.347Z,6.02
2022-09-18T04:03:01.357Z,6.06
2022-09-18T04:04:07.366Z,6.05
2022-09-18T04:05:35.383Z,6.07
2022-09-18T04:06:57.156Z,6.10
2022-09-18T04:08:18.772Z,6.13
2022-09-18T04:09:47.445Z,6.10
2022-09-18T04:10:51.744Z,6.12
2022-09-18T04:11:58.011Z,6.14
2022-09-18T04:13:03.891Z,6.16
2022-09-18T04:14:11.471Z,6.20
2022-09-18T04:15:16.666Z,6.21
2022-09-18T04:16:22.991Z,6.21
2022-09-18T04:17:28.306Z,6.24
2022-09-18T04:18:31.666Z,6.28
2022-09-18T04:19:35.068Z,6.26
2022-09-18T04:20:38.210Z,6.22
2022-09-18T04:21:41.949Z,6.26
2022-09-18T04:22:46.587Z,6.27
2022-09-18T04:23:49.812Z,6.22
2022-09-18T04:24:54.657Z,6.19
2022-09-18T04:25:58.298Z,6.19
2022-09-18T04:27:06.697Z,6.15
2022-09-18T04:28:13.212Z,6.12
2022-09-18T04:29:21.880Z,6.12
2022-09-18T04:30:25.853Z,6.04
2022-09-18T04:31:31.401Z,6.03
2022-09-18T04:32:37.662Z,6.02
2022-09-18T04:33:43.268Z,6.05
2022-09-18T04:34:46.594Z,6.03
2022-09-18T04:35:50.609Z,5.97
2022-09-18T04:36:54.606Z,5.93
2022-09-18T04:37:58.151Z,5.87
2022-09-18T04:39:01.455Z,5.84
2022-09-18T04:40:07.747Z,5.84
2022-09-18T04:41:11.156Z,5.84
2022-09-18T04:42:14.595Z,5.88
2022-09-18T04:43:19.342Z,5.86
2022-09-18T04:44:22.726Z,5.83
2022-09-18T04:45:27.452Z,5.83
2022-09-18T04:46:30.702Z,5.81
2022-09-18T04:47:34.251Z,5.78
2022-09-18T04:48:37.491Z,5.84
2022-09-18T04:49:41.028Z,5.83
2022-09-18T04:50:45.911Z,5.84
2022-09-18T04:51:52.952Z,5.85
2022-09-18T04:52:56.406Z,5.86
2022-09-18T04:53:59.868Z,5.89
2022-09-18T04:55:03.480Z,5.89
2022-09-18T04:56:07.658Z,5.91
2022-09-18T04:57:11.773Z,5.94
2022-09-18T04:58:17.296Z,5.97
2022-09-18T04:59:21.428Z,6.01
2022-09-18T05:00:24.790Z,6.04
2022-09-18T05:01:28.787Z,6.10
2022-09-18T05:02:35.150Z,6.12
2022-09-18T05:03:41.852Z,6.13
2022-09-18T05:04:47.564Z,6.13
2022-09-18T05:06:05.792Z,6.15
2022-09-18T05:07:09.140Z,6.21
2022-09-18T05:08:12.548Z,6.22
2022-09-18T05:09:15.923Z,6.25
2022-09-18T05:10:19.181Z,6.27
2022-09-18T05:11:23.277Z,6.30
2022-09-18T05:12:26.470Z,6.34
2022-09-18T05:13:29.677Z,6.37
2022-09-18T05:14:40.398Z,6.34
2022-09-18T05:15:44.445Z,6.33
2022-09-18T05:16:47.891Z,6.35
2022-09-18T05:18:15.569Z,6.34
2022-09-18T05:19:20.123Z,6.36
2022-09-18T05:20:23.402Z,6.36
2022-09-18T05:21:26.846Z,6.39
2022-09-18T05:22:31.111Z,6.41
2022-09-18T05:23:34.914Z,6.40
2022-09-18T05:24:38.172Z,6.40
2022-09-18T05:25:44.615Z,6.40
2022-09-18T05:26:48.735Z,6.43
2022-09-18T05:28:00.059Z,6.43
2022-09-18T05:29:06.466Z,6.43
2022-09-18T05:30:10.524Z,6.44
2022-09-18T05:31:25.110Z,6.45
2022-09-18T05:32:28.676Z,6.45
2022-09-18T05:33:36.577Z,6.47
2022-09-18T05:34:43.054Z,6.50
2022-09-18T05:35:46.526Z,6.53
2022-09-18T05:36:50.711Z,6.53
2022-09-18T05:37:55.531Z,6.54
2022-09-18T05:38:58.792Z,6.55
2022-09-18T05:40:02.283Z,6.57
2022-09-18T05:41:09.913Z,6.60
2022-09-18T05:42:13.800Z,6.61
2022-09-18T05:43:18.044Z,6.65
2022-09-18T05:44:23.611Z,6.69
2022-09-18T05:45:26.927Z,6.69
2022-09-18T05:46:30.272Z,6.72
2022-09-18T05:47:36.645Z,6.76
2022-09-18T05:48:40.588Z,6.79
2022-09-18T05:49:44.752Z,6.83
2022-09-18T05:50:48.727Z,6.90
2022-09-18T05:51:52.784Z,6.94
2022-09-18T05:53:12.387Z,6.94
2022-09-18T05:54:51.201Z,6.96
2022-09-18T05:55:54.542Z,6.97
2022-09-18T05:56:58.042Z,7.01
2022-09-18T05:58:02.964Z,7.03
2022-09-18T05:59:06.361Z,7.05
2022-09-18T06:00:10.823Z,7.04
2022-09-18T06:01:23.194Z,7.08
2022-09-18T06:03:01.128Z,7.12
2022-09-18T06:04:05.153Z,7.13
2022-09-18T06:05:18.393Z,7.16
2022-09-18T06:06:21.610Z,7.18
2022-09-18T06:07:25.338Z,7.18
2022-09-18T06:08:31.699Z,7.20
2022-09-18T06:09:34.967Z,7.23
2022-09-18T06:10:40.638Z,7.27
2022-09-18T06:11:45.922Z,7.31
2022-09-18T06:12:49.422Z,7.37
2022-09-18T06:13:52.733Z,7.49
2022-09-18T06:14:56.140Z,7.48
2022-09-18T06:16:01.224Z,7.49
2022-09-18T06:17:11.260Z,7.51
2022-09-18T06:18:15.653Z,7.48
2022-09-18T06:19:18.888Z,7.50
2022-09-18T06:20:27.305Z,7.50
2022-09-18T06:21:31.671Z,7.56
2022-09-18T06:22:36.827Z,7.54
2022-09-18T06:23:40.244Z,7.52
2022-09-18T06:24:50.515Z,7.53
2022-09-18T06:26:00.764Z,7.55
2022-09-18T06:27:04.262Z,7.59
2022-09-18T06:28:07.566Z,7.60
2022-09-18T06:29:11.062Z,7.64
2022-09-18T06:30:24.918Z,7.67
2022-09-18T06:31:28.626Z,7.65
2022-09-18T06:33:09.522Z,7.64
2022-09-18T06:34:13.085Z,7.66
2022-09-18T06:35:18.001Z,7.65
2022-09-18T06:36:23.521Z,7.70
2022-09-18T06:37:53.116Z,7.72
2022-09-18T06:39:10.875Z,7.71
2022-09-18T06:40:17.126Z,7.73
2022-09-18T06:41:47.131Z,7.72
2022-09-18T06:43:04.427Z,7.76
2022-09-18T06:44:34.750Z,7.79
2022-09-18T06:45:41.288Z,7.80
2022-09-18T06:46:44.824Z,7.81
2022-09-18T06:48:06.525Z,7.86
2022-09-18T06:49:12.891Z,7.92
2022-09-18T06:50:19.150Z,7.92
2022-09-18T06:51:22.601Z,7.93
2022-09-18T06:52:44.645Z,7.87
2022-09-18T06:53:48.076Z,7.87
2022-09-18T06:54:51.463Z,7.90
2022-09-18T06:56:08.323Z,7.87
2022-09-18T06:57:14.367Z,7.86
2022-09-18T06:58:19.840Z,7.86
2022-09-18T06:59:26.301Z,7.89
2022-09-18T07:00:32.614Z,7.85
2022-09-18T07:01:39.217Z,7.87
2022-09-18T07:02:55.464Z,7.84
2022-09-18T07:04:21.921Z,7.83
2022-09-18T07:05:29.461Z,7.81
2022-09-18T07:06:36.618Z,7.80
2022-09-18T07:07:40.088Z,7.88
2022-09-18T07:08:43.595Z,7.92
2022-09-18T07:09:55.036Z,7.93
2022-09-18T07:11:02.365Z,7.95
2022-09-18T07:12:05.927Z,8.00
2022-09-18T07:13:19.220Z,7.94
2022-09-18T07:14:23.040Z,8.03
2022-09-18T07:15:30.769Z,8.06
2022-09-18T07:16:35.412Z,8.08
2022-09-18T07:17:39.212Z,8.11
2022-09-18T07:18:42.496Z,8.11
2022-09-18T07:19:47.286Z,8.03
2022-09-18T07:20:53.958Z,8.11
2022-09-18T07:22:06.896Z,8.17
2022-09-18T07:23:14.807Z,8.11
2022-09-18T07:24:24.388Z,8.07
2022-09-18T07:25:29.629Z,8.09
2022-09-18T07:26:33.231Z,8.13
2022-09-18T07:27:36.826Z,8.16
2022-09-18T07:28:40.912Z,8.14
2022-09-18T07:29:57.385Z,8.15
2022-09-18T07:31:05.450Z,8.20
2022-09-18T07:32:08.740Z,8.23
2022-09-18T07:33:13.826Z,8.26
2022-09-18T07:34:21.250Z,8.24
2022-09-18T07:35:24.866Z,8.31
2022-09-18T07:36:28.557Z,8.33
2022-09-18T07:37:33.432Z,8.39
2022-09-18T07:38:51.236Z,8.51
2022-09-18T07:39:55.528Z,8.61
2022-09-18T07:41:21.651Z,8.55
2022-09-18T07:42:24.822Z,8.53
2022-09-18T07:43:28.388Z,8.53
2022-09-18T07:44:34.441Z,8.55
2022-09-18T07:45:39.108Z,8.56
2022-09-18T07:46:42.399Z,8.59
2022-09-18T07:47:45.824Z,8.59
2022-09-18T07:48:50.054Z,8.60
2022-09-18T07:50:00.358Z,8.65
2022-09-18T07:51:05.793Z,8.59
2022-09-18T07:52:09.907Z,8.57
2022-09-18T07:53:21.621Z,8.56
2022-09-18T07:54:27.161Z,8.56
2022-09-18T07:55:37.179Z,8.67
2022-09-18T07:56:46.508Z,8.78
2022-09-18T07:57:58.147Z,8.75
2022-09-18T07:59:07.816Z,8.79
2022-09-18T08:00:12.118Z,8.83
2022-09-18T08:01:25.761Z,8.89
2022-09-18T08:02:34.245Z,8.94
2022-09-18T08:03:41.363Z,8.95
2022-09-18T08:04:50.917Z,8.96
2022-09-18T08:06:11.744Z,8.94
2022-09-18T08:07:24.854Z,8.85
2022-09-18T08:08:46.634Z,8.79
2022-09-18T08:09:52.322Z,8.82
2022-09-18T08:11:16.756Z,8.84
2022-09-18T08:12:33.051Z,8.80
2022-09-18T08:13:56.541Z,8.80
2022-09-18T08:15:20.746Z,8.70
2022-09-18T08:16:43.168Z,8.68
2022-09-18T08:18:15.215Z,8.68
2022-09-18T08:19:35.763Z,8.55
2022-09-18T08:20:57.766Z,8.50
2022-09-18T08:22:06.633Z,8.36
2022-09-18T08:23:10.536Z,8.37
2022-09-18T08:24:17.711Z,8.37
2022-09-18T08:25:21.975Z,8.39
2022-09-18T08:26:27.291Z,8.42
2022-09-18T08:27:32.459Z,8.45
2022-09-18T08:28:35.849Z,8.46
2022-09-18T08:29:40.944Z,8.47
2022-09-18T08:30:46.091Z,8.50
2022-09-18T08:31:49.566Z,8.51
2022-09-18T08:32:58.330Z,8.57
2022-09-18T08:34:02.936Z,8.56
2022-09-18T08:35:08.605Z,8.62
2022-09-18T08:36:12.369Z,8.67
2022-09-18T08:37:24.311Z,8.76
2022-09-18T08:38:46.512Z,8.87
2022-09-18T08:40:50.296Z,8.84
2022-09-18T08:42:05.548Z,8.69
2022-09-18T08:43:28.018Z,8.79
2022-09-18T08:44:44.791Z,8.75
2022-09-18T08:46:11.760Z,8.74
2022-09-18T08:47:32.441Z,8.74
2022-09-18T08:48:50.396Z,8.67
2022-09-18T08:50:12.757Z,8.59
2022-09-18T08:51:42.165Z,8.60
2022-09-18T08:53:03.135Z,8.58
2022-09-18T08:54:41.228Z,8.83
2022-09-18T08:55:54.445Z,8.93
2022-09-18T08:57:39.711Z,9.08
2022-09-18T08:59:00.876Z,9.37
2022-09-18T09:00:24.400Z,9.63
2022-09-18T09:01:49.979Z,9.77
2022-09-18T09:03:01.576Z,9.95
2022-09-18T09:04:18.086Z,10.08
2022-09-18T09:05:26.499Z,10.23
2022-09-18T09:06:44.900Z,10.28
2022-09-18T09:08:38.418Z,10.29
2022-09-18T09:09:47.772Z,10.26
2022-09-18T09:11:17.881Z,10.25
2022-09-18T09:12:48.852Z,10.16
2022-09-18T09:14:16.092Z,10.10
2022-09-18T09:15:48.209Z,9.94
2022-09-18T09:17:00.639Z,9.76
2022-09-18T09:18:20.213Z,9.74
2022-09-18T09:19:55.256Z,9.70
2022-09-18T09:21:13.135Z,9.70
2022-09-18T09:22:24.790Z,9.72
2022-09-18T09:23:56.190Z,9.73
2022-09-18T09:25:38.471Z,9.64
2022-09-18T09:26:50.163Z,9.49
2022-09-18T09:28:28.861Z,9.49
2022-09-18T09:29:57.609Z,9.45
2022-09-18T09:31:21.094Z,9.46
2022-09-18T09:33:04.577Z,9.49
2022-09-18T09:34:19.213Z,9.52
2022-09-18T09:35:46.569Z,9.57
2022-09-18T09:36:56.826Z,9.54
2022-09-18T09:38:06.833Z,9.57
2022-09-18T09:39:23.177Z,9.59
2022-09-18T09:40:50.750Z,9.54
2022-09-18T09:42:25.969Z,9.42
2022-09-18T09:43:43.208Z,9.47
2022-09-18T09:45:10.883Z,9.51
2022-09-18T09:46:40.393Z,9.51
2022-09-18T09:48:21.496Z,9.54
2022-09-18T09:49:32.560Z,9.67
2022-09-18T09:50:41.885Z,9.80
2022-09-18T09:52:09.710Z,9.93
2022-09-18T09:53:14.131Z,10.10
2022-09-18T09:54:18.779Z,10.24
2022-09-18T09:55:36.339Z,10.55
2022-09-18T09:57:11.151Z,10.88
2022-09-18T09:58:30.832Z,11.13
2022-09-18T09:59:51.202Z,11.06
2022-09-18T10:01:21.230Z,11.10
2022-09-18T10:03:04.571Z,11.09
2022-09-18T10:04:35.585Z,10.99
2022-09-18T10:06:11.075Z,10.90
2022-09-18T10:07:25.716Z,10.74
2022-09-18T10:08:54.431Z,10.67
2022-09-18T10:10:22.386Z,10.44
2022-09-18T10:11:27.252Z,10.31
2022-09-18T10:13:00.765Z,10.30
2022-09-18T10:14:29.366Z,10.25
2022-09-18T10:15:38.749Z,10.25
2022-09-18T10:16:51.877Z,10.19
2022-09-18T10:18:00.002Z,10.21
2022-09-18T10:19:04.601Z,10.24
2022-09-18T10:20:16.200Z,10.25
2022-09-18T10:21:24.447Z,10.26
2022-09-18T10:22:28.658Z,10.24
2022-09-18T10:23:41.771Z,10.24
2022-09-18T10:25:17.226Z,10.28
2022-09-18T10:26:28.627Z,10.36
2022-09-18T10:27:31.976Z,10.37
2022-09-18T10:28:35.146Z,10.42
2022-09-18T10:29:39.348Z,10.36
2022-09-18T10:31:05.563Z,10.32
2022-09-18T10:32:12.990Z,10.27
2022-09-18T10:33:43.805Z,10.15
2022-09-18T10:34:53.541Z,10.03
2022-09-18T10:36:22.704Z,10.03
2022-09-18T10:37:29.017Z,9.96
2022-09-18T10:38:39.453Z,9.93
2022-09-18T10:40:40.175Z,9.97
2022-09-18T10:41:48.195Z,9.95
2022-09-18T10:42:55.533Z,9.95
2022-09-18T10:44:07.372Z,9.94
2022-09-18T10:45:26.295Z,9.92
2022-09-18T10:46:39.248Z,9.94
2022-09-18T10:47:42.685Z,9.91
2022-09-18T10:48:46.293Z,9.82
2022-09-18T10:49:56.902Z,9.79
2022-09-18T10:51:04.392Z,9.78
2022-09-18T10:52:25.310Z,9.77
2022-09-18T10:53:38.997Z,9.77
2022-09-18T10:55:13.177Z,9.76
2022-09-18T10:56:20.730Z,9.59
2022-09-18T10:57:34.652Z,9.60
2022-09-18T10:58:40.209Z,9.62
2022-09-18T10:59:44.258Z,9.64
2022-09-18T11:00:59.162Z,9.68
2022-09-18T11:02:06.454Z,9.70
2022-09-18T11:03:25.475Z,9.69
2022-09-18T11:04:30.851Z,9.67
2022-09-18T11:05:49.409Z,9.60
2022-09-18T11:06:53.571Z,9.64
2022-09-18T11:08:05.326Z,9.73
2022-09-18T11:09:11.284Z,9.77
2022-09-18T11:10:24.042Z,9.74
2022-09-18T11:11:31.794Z,9.75
2022-09-18T11:12:55.542Z,9.75
2022-09-18T11:14:37.984Z,9.69
2022-09-18T11:15:53.142Z,9.71
2022-09-18T11:17:01.128Z,9.83
2022-09-18T11:18:14.110Z,9.84
2022-09-18T11:19:39.288Z,9.93
2022-09-18T11:20:57.851Z,9.91
2022-09-18T11:22:07.037Z,9.89
2022-09-18T11:23:28.022Z,9.89
2022-09-18T11:24:35.888Z,9.93
2022-09-18T11:25:47.821Z,9.96
2022-09-18T11:27:03.278Z,10.03
2022-09-18T11:28:28.478Z,10.07
2022-09-18T11:29:39.364Z,10.10
2022-09-18T11:30:44.232Z,10.14
2022-09-18T11:32:05.240Z,10.17
2022-09-18T11:33:27.278Z,10.18
2022-09-18T11:34:37.335Z,10.16
2022-09-18T11:35:50.775Z,10.17
2022-09-18T11:36:59.908Z,10.13
2022-09-18T11:38:12.838Z,10.15
2022-09-18T11:39:24.589Z,10.16
2022-09-18T11:40:32.414Z,10.14
2022-09-18T11:41:38.893Z,10.21
2022-09-18T11:42:47.342Z,10.20
2022-09-18T11:44:12.777Z,10.21
2022-09-18T11:45:41.418Z,10.25
2022-09-18T11:47:28.624Z,10.26
2022-09-18T11:48:36.461Z,10.19
2022-09-18T11:49:48.121Z,10.13
2022-09-18T11:50:57.194Z,10.12
2022-09-18T11:52:13.356Z,10.11
2022-09-18T11:53:24.461Z,10.10
2022-09-18T11:54:35.982Z,10.13
2022-09-18T11:55:51.025Z,10.10
2022-09-18T11:56:59.876Z,10.08
2022-09-18T11:58:06.138Z,10.10
2022-09-18T11:59:24.556Z,10.09
2022-09-18T12:00:32.644Z,10.02
2022-09-18T12:01:45.256Z,10.07
2022-09-18T12:03:28.363Z,10.04
2022-09-18T12:04:43.766Z,9.97
2022-09-18T12:05:51.671Z,9.95
2022-09-18T12:07:14.745Z,9.89
2022-09-18T12:08:21.980Z,9.93
2022-09-18T12:09:47.753Z,9.96
2022-09-18T12:11:10.976Z,10.01
2022-09-18T12:12:21.893Z,10.07
2022-09-18T12:13:31.203Z,10.12
2022-09-18T12:15:04.130Z,10.21
2022-09-18T12:16:16.505Z,10.24
2022-09-18T12:17:22.783Z,10.31
2022-09-18T12:18:34.364Z,10.41
2022-09-18T12:19:49.482Z,10.53
2022-09-18T12:21:10.088Z,10.47
2022-09-18T12:22:23.796Z,10.41
2022-09-18T12:23:29.155Z,10.45
2022-09-18T12:24:34.665Z,10.44
2022-09-18T12:25:43.987Z,10.39
2022-09-18T12:27:38.666Z,10.46
2022-09-18T12:29:24.797Z,10.59
2022-09-18T12:30:41.965Z,10.74
2022-09-18T12:31:51.278Z,10.76
2022-09-18T12:32:57.590Z,10.71
2022-09-18T12:34:13.632Z,10.71
2022-09-18T12:35:37.037Z,10.67
2022-09-18T12:37:03.236Z,10.66
2022-09-18T12:38:35.574Z,10.55
2022-09-18T12:40:14.515Z,10.46
2022-09-18T12:41:30.149Z,10.38
2022-09-18T12:42:42.940Z,10.33
2022-09-18T12:44:23.637Z,10.25
2022-09-18T12:45:59.331Z,10.13
2022-09-18T12:47:14.972Z,10.08
2022-09-18T12:48:54.590Z,10.12
2022-09-18T12:50:22.757Z,10.05
2022-09-18T12:51:28.949Z,10.08
2022-09-18T12:53:09.866Z,10.08
2022-09-18T12:54:18.984Z,10.12
2022-09-18T12:55:22.183Z,10.11
2022-09-18T12:56:50.927Z,10.14
2022-09-18T12:58:18.936Z,10.21
2022-09-18T12:59:41.064Z,10.23
2022-09-18T13:00:47.319Z,10.30
2022-09-18T13:02:23.474Z,10.28
2022-09-18T13:03:36.682Z,10.37
2022-09-18T13:04:50.962Z,10.45
2022-09-18T13:06:16.138Z,10.48
2022-09-18T13:07:50.351Z,10.53
2022-09-18T13:09:07.485Z,10.48
2022-09-18T13:10:16.449Z,10.49
2022-09-18T13:11:25.436Z,10.49
2022-09-18T13:12:38.505Z,10.55
2022-09-18T13:13:51.748Z,10.47
2022-09-18T13:15:19.682Z,10.43
2022-09-18T13:16:26.924Z,10.43
2022-09-18T13:17:42.002Z,10.44
2022-09-18T13:18:59.642Z,10.46
2022-09-18T13:20:15.522Z,10.46
2022-09-18T13:21:23.208Z,10.46
2022-09-18T13:22:33.780Z,10.52
2022-09-18T13:23:42.079Z,10.44
2022-09-18T13:24:48.901Z,10.49
2022-09-18T13:25:53.313Z,10.50
2022-09-18T13:26:57.971Z,10.61
2022-09-18T13:28:04.045Z,10.62
2022-09-18T13:29:44.787Z,10.58
2022-09-18T13:31:23.651Z,10.61
2022-09-18T13:32:37.368Z,10.60
2022-09-18T13:33:51.834Z,10.65
2022-09-18T13:35:04.068Z,10.72
2022-09-18T13:36:07.454Z,10.64
2022-09-18T13:37:17.204Z,10.64
2022-09-18T13:38:24.175Z,10.57
2022-09-18T13:39:46.057Z,10.49
2022-09-18T13:41:02.204Z,10.45
2022-09-18T13:42:05.917Z,10.45
2022-09-18T13:43:18.558Z,10.42
2022-09-18T13:44:30.188Z,10.45
2022-09-18T13:45:38.690Z,10.50
2022-09-18T13:46:42.288Z,10.55
2022-09-18T13:48:06.927Z,10.61
2022-09-18T13:49:37.899Z,10.61
2022-09-18T13:51:00.173Z,10.65
2022-09-18T13:52:35.681Z,10.61
2022-09-18T13:53:40.767Z,10.57
2022-09-18T13:55:20.915Z,10.54
2022-09-18T13:57:11.066Z,10.49
2022-09-18T13:58:53.564Z,10.36
2022-09-18T14:00:02.573Z,10.29
2022-09-18T14:01:41.544Z,10.22
2022-09-18T14:02:45.780Z,10.09
2022-09-18T14:03:49.604Z,10.10
2022-09-18T14:05:22.138Z,10.01
2022-09-18T14:06:37.626Z,9.96
2022-09-18T14:07:40.821Z,9.99
2022-09-18T14:08:44.115Z,10.01
2022-09-18T14:10:04.186Z,10.01
2022-09-18T14:11:15.294Z,9.90
2022-09-18T14:12:19.374Z,9.89
2022-09-18T14:13:36.185Z,9.77
2022-09-18T14:14:40.341Z,9.76
2022-09-18T14:16:14.444Z,9.80
2022-09-18T14:17:17.778Z,9.65
2022-09-18T14:18:28.749Z,9.68
2022-09-18T14:19:36.398Z,9.65
2022-09-18T14:20:40.801Z,9.77
2022-09-18T14:21:45.179Z,9.73
2022-09-18T14:22:48.324Z,9.70
2022-09-18T14:24:02.715Z,9.72
2022-09-18T14:25:10.373Z,9.76
2022-09-18T14:26:28.632Z,9.68
2022-09-18T14:27:35.607Z,9.66
2022-09-18T14:28:47.401Z,9.66
2022-09-18T14:29:56.378Z,9.71
2022-09-18T14:31:49.522Z,9.65
2022-09-18T14:32:58.753Z,9.67
2022-09-18T14:34:24.374Z,9.71
2022-09-18T14:35:36.043Z,9.76
2022-09-18T14:36:47.391Z,9.74
2022-09-18T14:37:50.867Z,9.73
2022-09-18T14:38:54.146Z,9.72
2022-09-18T14:39:58.799Z,9.75
2022-09-18T14:41:21.238Z,9.75
2022-09-18T14:42:31.915Z,9.73
2022-09-18T14:43:40.528Z,9.76
2022-09-18T14:45:21.184Z,9.74
2022-09-18T14:46:25.852Z,9.73
2022-09-18T14:47:29.149Z,9.77
2022-09-18T14:48:37.904Z,9.79
2022-09-18T14:49:44.365Z,9.80
2022-09-18T14:51:16.381Z,9.83
2022-09-18T14:52:42.672Z,9.82
2022-09-18T14:53:51.287Z,9.77
2022-09-18T14:54:57.323Z,9.81
2022-09-18T14:56:08.058Z,9.80
2022-09-18T14:57:14.722Z,9.81
2022-09-18T14:58:21.910Z,9.89
2022-09-18T14:59:26.084Z,9.84
2022-09-18T15:00:32.627Z,9.83
2022-09-18T15:01:37.673Z,9.80
2022-09-18T15:02:40.987Z,9.80
2022-09-18T15:03:48.665Z,9.83
2022-09-18T15:04:52.663Z,9.86
2022-09-18T15:06:05.435Z,9.88
2022-09-18T15:07:20.716Z,9.93
2022-09-18T15:08:26.902Z,9.94
2022-09-18T15:09:33.583Z,9.91
2022-09-18T15:10:40.434Z,9.94
2022-09-18T15:12:01.923Z,9.90
2022-09-18T15:13:09.919Z,9.85
2022-09-18T15:14:27.022Z,9.90
2022-09-18T15:15:33.304Z,9.85
2022-09-18T15:16:36.622Z,9.81
2022-09-18T15:17:39.818Z,9.80
2022-09-18T15:18:46.361Z,9.77
2022-09-18T15:20:01.188Z,9.76
2022-09-18T15:21:04.513Z,9.74
2022-09-18T15:22:22.048Z,9.69
2022-09-18T15:23:32.649Z,9.67
2022-09-18T15:24:35.914Z,9.68
2022-09-18T15:25:43.319Z,9.64
2022-09-18T15:26:56.001Z,9.61
2022-09-18T15:28:04.790Z,9.61
2022-09-18T15:29:23.939Z,9.62
2022-09-18T15:30:27.140Z,9.58
2022-09-18T15:31:32.800Z,9.55
2022-09-18T15:32:41.479Z,9.55
2022-09-18T15:33:55.897Z,9.56
2022-09-18T15:35:00.391Z,9.49
2022-09-18T15:36:24.419Z,9.49
2022-09-18T15:37:28.960Z,9.52
2022-09-18T15:38:46.108Z,9.49
2022-09-18T15:40:02.371Z,9.44
2022-09-18T15:41:30.310Z,9.43
2022-09-18T15:42:36.988Z,9.39
2022-09-18T15:43:41.301Z,9.40
2022-09-18T15:44:50.739Z,9.37
2022-09-18T15:46:04.345Z,9.34
2022-09-18T15:47:25.899Z,9.32
2022-09-18T15:48:45.387Z,9.33
2022-09-18T15:49:49.754Z,9.26
2022-09-18T15:51:07.335Z,9.27
2022-09-18T15:52:39.770Z,9.28
2022-09-18T15:54:12.353Z,9.25
2022-09-18T15:55:26.639Z,9.25
2022-09-18T15:56:31.436Z,9.24
2022-09-18T15:57:34.708Z,9.29
2022-09-18T15:58:53.562Z,9.28